Ottawa Gatineau Airport
CYND : now visible

Airfield :











YOU CAN JOIN US ON...

 
LOGIN :

Register | Disclaimer

   EN    FR    IT 

 









Legend :    VFR   Marginal VFR   IFR   Intensive IFR   Very Intensive IFR
Visi :
Ceiling :
>= 8 km
>= 3000ft
5 to 8 km
1000 to 3000 ft
1500m to 5 km
500 to 1000 ft
800 to 1500m
200 to 500 ft
< 800m
< 200 ft
Symbols :   Thunderstorms  Fog  Heavy snow  Heavy precipitations  Wind > 20 kt






- Airport Elevation : 211 ft
- IATA code : YND


CYND - Ottawa Gatineau

CURRENT METAR :
  • 072000Z 06005KT 030V100 15SM FEW055 FEW250 27/12 A3013 RMK CU1CI1 SLP204 DENSITY ALT 1400FT

EXPIRED METARs :
  • 071900Z 09003KT 350V120 15SM FEW052 FEW250 26/13 A3014 RMK SC1CI1 CI TR SLP208 DENSITY ALT 1300FT
  • 071800Z 05004KT 15SM FEW050 26/14 A3014 RMK CU1 SLP210 DENSITY ALT 1300FT

TAF TAF CYND
Valid from the 07 at 18:00 until the 08 at 01:00 UTC


071742Z 0718/0801 VRB03KT P6SM FEW040 RMK NXT FCST WILL BE ISSUED AT 081245Z
CZUL FIR / North America



MET'MAP, your aeronautical weather chart ! - Copyright ORBIFLY December 2007 - Disclaimer

ORBIFLY MET'MAP TEAM :

Programming & Development : Alexandra Zaïnal
Concept & original design : Baudouin d'Aumeries
Assistance for programming : Marc-Olivier Méhu
Technical & hardware support : Manuel Goepfert

Contact : metmap@orbifly.com




SOURCES & CREDITS :

   NOAA       Earth
Advisory